Time;durP1;ratioP1;P1;durP2;ratioP2;P2;SDS_P1;SDS_P2;PMS_P1;PMS_P2;Temp;Humidity;BMP_temperature;BMP_pressure;BME280_temperature;BME280_humidity;BME280_pressure;Samples;Min_cycle;Max_cycle;Signal;HPM_P1;HPM_P2
2021/12/21 00:00:56;;;;;;;8.33;5.47;;;1.40;84.60;;;;;;5053369;28;20427;-74
2021/12/21 00:03:22;;;;;;;19.63;7.50;;;1.30;84.80;;;;;;5053973;28;20450;-74
2021/12/21 00:05:48;;;;;;;9.67;5.03;;;1.30;84.80;;;;;;5053130;28;20822;-74
2021/12/21 00:08:16;;;;;;;8.23;4.80;;;1.30;85.10;;;;;;5054662;28;20397;-75
2021/12/21 00:10:44;;;;;;;11.03;4.40;;;1.30;85.20;;;;;;5053890;28;20178;-75
2021/12/21 00:16:14;;;;;;;11.23;5.00;;;1.30;85.40;;;;;;5072103;28;20428;-74
2021/12/21 00:21:34;;;;;;;10.07;5.13;;;1.20;85.50;;;;;;5052205;28;20416;-74
2021/12/21 00:24:01;;;;;;;8.57;4.93;;;1.10;85.60;;;;;;5052921;28;20468;-75
2021/12/21 00:26:27;;;;;;;10.77;5.03;;;1.10;85.90;;;;;;5051384;28;20456;-75
2021/12/21 00:28:59;;;;;;;12.53;4.80;;;1.00;86.10;;;;;;5051775;28;20432;-75
2021/12/21 00:31:27;;;;;;;12.50;5.00;;;1.00;86.30;;;;;;5034109;28;20173;-75
2021/12/21 00:33:53;;;;;;;11.90;4.57;;;1.00;86.40;;;;;;5051889;28;20397;-76
2021/12/21 00:36:22;;;;;;;9.80;4.80;;;0.90;86.40;;;;;;5034052;28;20951;-75
2021/12/21 00:38:49;;;;;;;7.23;4.37;;;0.90;86.50;;;;;;5052160;28;20436;-75
2021/12/21 00:41:15;;;;;;;12.27;5.50;;;0.90;86.80;;;;;;5051567;28;20438;-74
2021/12/21 00:43:41;;;;;;;10.63;5.17;;;0.80;86.80;;;;;;5052433;28;20851;-74
2021/12/21 00:46:07;;;;;;;11.40;5.80;;;0.80;87.20;;;;;;5051576;28;20554;-75
2021/12/21 00:48:34;;;;;;;9.50;4.87;;;0.70;87.30;;;;;;5030735;28;20167;-75
2021/12/21 00:51:06;;;;;;;8.20;5.00;;;0.70;87.50;;;;;;5032732;28;20806;-74
2021/12/21 00:53:35;;;;;;;10.63;5.87;;;0.70;87.70;;;;;;5032017;28;20421;-74
2021/12/21 00:56:02;;;;;;;13.63;6.37;;;0.70;87.90;;;;;;5030212;28;20453;-74
2021/12/21 00:58:27;;;;;;;16.90;7.10;;;0.70;87.90;;;;;;5049702;28;20501;-76
2021/12/21 01:00:53;;;;;;;12.83;5.40;;;0.70;88.10;;;;;;5051586;28;20400;-73
2021/12/21 01:03:19;;;;;;;9.90;5.60;;;0.70;88.30;;;;;;5051704;28;20169;-74
2021/12/21 01:05:54;;;;;;;10.10;4.60;;;0.60;88.30;;;;;;5049857;28;20248;-74
2021/12/21 01:08:25;;;;;;;15.20;8.27;;;0.70;88.80;;;;;;5051420;28;20451;-75
2021/12/21 01:11:36;;;;;;;12.87;7.17;;;0.70;88.90;;;;;;5051348;28;20462;-74
2021/12/21 01:16:43;;;;;;;17.37;6.73;;;0.70;88.80;;;;;;5050576;28;20432;-75
2021/12/21 01:19:28;;;;;;;13.50;6.03;;;0.60;89.00;;;;;;5049745;28;20780;-74
2021/12/21 01:22:05;;;;;;;16.97;6.73;;;0.60;88.90;;;;;;5049930;28;20786;-74
2021/12/21 01:29:46;;;;;;;14.60;6.40;;;0.60;89.20;;;;;;5051368;28;20162;-76
2021/12/21 01:32:26;;;;;;;15.00;6.10;;;0.50;89.10;;;;;;5050113;28;20423;-75
2021/12/21 01:35:10;;;;;;;11.40;6.20;;;0.50;89.20;;;;;;5050640;28;20444;-74
2021/12/21 01:37:50;;;;;;;11.40;5.83;;;0.40;89.40;;;;;;5049857;28;20985;-75
2021/12/21 01:51:06;;;;;;;8.50;5.43;;;0.40;90.20;;;;;;5053738;28;20869;-73
2021/12/21 01:53:32;;;;;;;8.83;4.93;;;0.40;90.20;;;;;;5053936;28;20412;-73
2021/12/21 01:55:59;;;;;;;10.00;6.17;;;0.40;90.30;;;;;;5054239;28;20546;-73
2021/12/21 01:58:24;;;;;;;8.53;5.10;;;0.40;90.30;;;;;;5055288;28;20412;-74
2021/12/21 02:00:50;;;;;;;9.80;4.40;;;0.40;90.30;;;;;;5053745;28;20774;-75
2021/12/21 02:03:16;;;;;;;9.60;5.13;;;0.40;90.40;;;;;;5053695;28;20209;-74
2021/12/21 02:05:42;;;;;;;10.70;5.83;;;0.40;90.30;;;;;;5054246;28;20220;-73
2021/12/21 02:08:08;;;;;;;10.37;5.90;;;0.40;90.30;;;;;;5070062;28;20455;-74
2021/12/21 02:10:37;;;;;;;13.73;6.63;;;0.40;90.30;;;;;;5055375;28;20168;-73
2021/12/21 02:13:03;;;;;;;12.53;6.03;;;0.40;90.30;;;;;;5053293;28;20669;-74
2021/12/21 02:15:30;;;;;;;14.97;5.93;;;0.30;90.30;;;;;;5070563;28;20444;-74
2021/12/21 02:23:15;;;;;;;12.90;6.83;;;0.20;90.40;;;;;;5056169;28;20908;-73
2021/12/21 02:26:03;;;;;;;10.87;5.97;;;0.20;90.60;;;;;;5054092;28;20494;-75
2021/12/21 02:30:54;;;;;;;10.53;6.00;;;0.30;90.90;;;;;;5054804;28;20428;-74
2021/12/21 02:33:21;;;;;;;15.53;7.17;;;0.30;90.80;;;;;;5054366;28;20202;-73
2021/12/21 02:35:47;;;;;;;11.90;6.47;;;0.30;90.80;;;;;;5054271;28;20452;-74
2021/12/21 02:38:13;;;;;;;9.33;5.77;;;0.30;91.00;;;;;;5055077;28;20499;-74
2021/12/21 02:40:39;;;;;;;10.23;5.10;;;0.30;91.00;;;;;;5054685;28;20486;-74
2021/12/21 02:43:06;;;;;;;10.87;5.80;;;0.30;91.00;;;;;;5054881;28;20543;-74
2021/12/21 02:45:32;;;;;;;13.93;4.70;;;0.30;91.00;;;;;;5053663;28;20493;-74
2021/12/21 02:47:58;;;;;;;12.03;6.50;;;0.20;91.00;;;;;;5058868;28;20470;-74
2021/12/21 02:50:24;;;;;;;11.37;5.37;;;0.20;91.10;;;;;;5058972;28;20420;-74
2021/12/21 02:52:51;;;;;;;9.23;5.97;;;0.20;91.10;;;;;;5058639;28;20584;-74
2021/12/21 02:55:17;;;;;;;11.47;5.73;;;0.30;91.00;;;;;;5035273;28;20463;-73
2021/12/21 02:57:43;;;;;;;10.50;5.77;;;0.20;90.90;;;;;;5053753;28;20848;-73
2021/12/21 03:00:11;;;;;;;7.50;4.60;;;0.20;90.90;;;;;;5052641;28;20432;-75
2021/12/21 03:02:37;;;;;;;10.90;5.80;;;0.20;90.90;;;;;;5054044;28;20424;-73
2021/12/21 03:05:04;;;;;;;13.17;5.97;;;0.20;91.10;;;;;;5052158;28;20456;-73
2021/12/21 03:10:10;;;;;;;9.83;5.17;;;0.20;91.40;;;;;;5054046;28;20897;-74
2021/12/21 03:15:23;;;;;;;11.03;5.57;;;0.20;91.20;;;;;;5054563;28;20952;-74
2021/12/21 03:17:50;;;;;;;11.23;5.23;;;0.20;91.20;;;;;;5057028;28;20416;-73
2021/12/21 03:20:17;;;;;;;9.10;5.07;;;0.20;91.20;;;;;;5054201;28;20800;-74
2021/12/21 03:22:42;;;;;;;9.33;4.97;;;0.20;91.20;;;;;;5052184;28;20412;-74
2021/12/21 03:25:09;;;;;;;11.70;7.00;;;0.20;91.20;;;;;;5051502;28;20472;-74
2021/12/21 03:27:35;;;;;;;8.87;4.30;;;0.20;91.20;;;;;;5051909;28;20173;-73
2021/12/21 03:30:00;;;;;;;10.93;5.43;;;0.20;91.40;;;;;;5053600;28;20485;-75
2021/12/21 03:32:26;;;;;;;8.30;4.90;;;0.20;91.40;;;;;;5068518;28;20162;-74
2021/12/21 03:34:52;;;;;;;8.60;4.27;;;0.10;91.40;;;;;;5054082;28;20193;-77
2021/12/21 03:37:18;;;;;;;13.20;5.50;;;0.10;91.40;;;;;;5054773;28;20173;-74
2021/12/21 03:39:45;;;;;;;10.53;5.97;;;0.10;91.40;;;;;;5053499;28;20446;-74
2021/12/21 03:42:12;;;;;;;10.47;6.30;;;0.10;91.40;;;;;;5053829;28;20180;-73
2021/12/21 03:44:39;;;;;;;11.93;5.70;;;0.00;91.40;;;;;;5054110;28;20464;-75
2021/12/21 03:47:08;;;;;;;11.17;5.10;;;0.00;91.50;;;;;;5053206;28;20473;-74
2021/12/21 03:52:07;;;;;;;7.27;4.43;;;0.00;91.60;;;;;;5072911;28;20392;-74
2021/12/21 03:54:34;;;;;;;16.57;5.57;;;0.00;91.60;;;;;;5068723;28;20460;-74
2021/12/21 03:57:00;;;;;;;6.90;4.80;;;-0.10;91.60;;;;;;5052490;28;20412;-74
2021/12/21 03:59:26;;;;;;;8.30;5.33;;;-0.10;91.50;;;;;;5052399;28;20506;-73
2021/12/21 04:01:53;;;;;;;6.93;4.90;;;-0.10;91.60;;;;;;5051807;28;20459;-74
2021/12/21 04:04:19;;;;;;;9.53;5.50;;;-0.10;91.70;;;;;;5051060;28;20197;-74
2021/12/21 04:06:46;;;;;;;9.83;4.90;;;-0.10;91.80;;;;;;5051830;28;20428;-74
2021/12/21 04:09:13;;;;;;;8.80;4.23;;;-0.10;91.80;;;;;;5050882;28;20773;-72
2021/12/21 04:11:39;;;;;;;10.37;6.50;;;-0.20;91.80;;;;;;5052397;28;20474;-74
2021/12/21 04:14:05;;;;;;;15.50;6.40;;;-0.20;91.80;;;;;;5050930;28;20450;-73
2021/12/21 04:16:31;;;;;;;11.03;5.57;;;-0.20;92.00;;;;;;5051737;28;20165;-73
2021/12/21 04:18:56;;;;;;;8.30;4.70;;;-0.20;91.90;;;;;;5052479;28;20470;-73
2021/12/21 04:21:22;;;;;;;11.50;6.20;;;-0.20;91.80;;;;;;5052218;28;20173;-73
2021/12/21 04:23:48;;;;;;;8.87;5.30;;;-0.20;91.90;;;;;;5051951;28;20173;-74
2021/12/21 04:26:15;;;;;;;9.07;5.17;;;-0.20;91.90;;;;;;5051545;28;20193;-73
2021/12/21 04:28:41;;;;;;;9.90;4.90;;;-0.20;92.00;;;;;;5051418;28;20197;-75
2021/12/21 04:31:09;;;;;;;9.03;5.17;;;-0.20;92.00;;;;;;5051889;28;20491;-73
2021/12/21 04:33:34;;;;;;;12.67;6.67;;;-0.30;92.00;;;;;;5051920;28;20416;-74
2021/12/21 04:36:01;;;;;;;7.60;5.10;;;-0.30;92.10;;;;;;5051242;28;20436;-73
2021/12/21 04:38:34;;;;;;;10.87;6.50;;;-0.30;92.10;;;;;;5052298;28;20255;-74
2021/12/21 04:41:23;;;;;;;12.60;5.87;;;-0.30;92.20;;;;;;5050853;28;20581;-75
2021/12/21 04:43:50;;;;;;;15.90;5.90;;;-0.30;92.20;;;;;;5050777;28;20440;-74
2021/12/21 04:46:16;;;;;;;10.17;5.17;;;-0.30;92.30;;;;;;5052035;28;20821;-74
2021/12/21 04:48:42;;;;;;;8.50;5.50;;;-0.30;92.40;;;;;;5051089;28;20877;-75
2021/12/21 04:51:07;;;;;;;9.60;4.20;;;-0.30;92.30;;;;;;5052299;28;20444;-75
2021/12/21 04:53:33;;;;;;;8.40;5.13;;;-0.30;92.30;;;;;;5051153;28;20180;-73
2021/12/21 04:56:00;;;;;;;7.97;5.17;;;-0.30;92.40;;;;;;5066430;22;20484;-81
2021/12/21 04:58:26;;;;;;;7.10;4.60;;;-0.40;92.50;;;;;;5056114;28;20476;-81
2021/12/21 05:00:51;;;;;;;7.50;4.57;;;-0.40;92.60;;;;;;5057900;28;20821;-82
2021/12/21 05:03:18;;;;;;;8.23;4.80;;;-0.40;92.60;;;;;;5056155;28;20452;-81
2021/12/21 05:05:43;;;;;;;12.20;5.07;;;-0.40;92.70;;;;;;5055659;28;20510;-81
2021/12/21 05:08:20;;;;;;;10.83;5.20;;;-0.50;92.70;;;;;;5076328;22;20479;-74
2021/12/21 05:10:49;;;;;;;11.50;5.40;;;-0.50;92.70;;;;;;5052032;28;20230;-75
2021/12/21 05:13:17;;;;;;;13.27;4.60;;;-0.50;92.90;;;;;;5051920;28;20905;-76
2021/12/21 05:15:44;;;;;;;7.70;4.00;;;-0.50;92.90;;;;;;5051479;28;20787;-75
2021/12/21 05:18:11;;;;;;;9.70;4.53;;;-0.50;92.90;;;;;;5051927;28;20890;-75
2021/12/21 05:20:37;;;;;;;7.60;4.57;;;-0.50;92.90;;;;;;5073874;22;20480;-73
2021/12/21 05:23:03;;;;;;;12.50;4.97;;;-0.50;92.90;;;;;;5052152;28;20424;-73
2021/12/21 05:25:29;;;;;;;6.33;3.90;;;-0.50;92.80;;;;;;5050862;28;20468;-72
2021/12/21 05:27:54;;;;;;;9.67;5.10;;;-0.50;92.70;;;;;;5051823;28;20165;-75
2021/12/21 05:30:22;;;;;;;8.00;5.10;;;-0.50;92.60;;;;;;5050694;28;20423;-73
2021/12/21 05:32:51;;;;;;;7.33;3.83;;;-0.50;92.40;;;;;;5050675;28;20553;-74
2021/12/21 05:35:18;;;;;;;10.37;5.00;;;-0.50;92.40;;;;;;5050532;28;20412;-73
2021/12/21 05:37:45;;;;;;;9.90;5.13;;;-0.60;92.50;;;;;;5049485;28;20507;-73
2021/12/21 05:40:14;;;;;;;7.77;4.40;;;-0.50;92.70;;;;;;5049396;28;20498;-73
2021/12/21 05:42:41;;;;;;;5.93;3.87;;;-0.50;92.50;;;;;;5050088;28;20482;-73
2021/12/21 05:45:08;;;;;;;8.73;4.33;;;-0.50;92.20;;;;;;5050341;28;20466;-73
2021/12/21 05:47:34;;;;;;;8.40;4.60;;;-0.50;92.10;;;;;;5065610;28;20503;-73
2021/12/21 05:50:00;;;;;;;8.77;4.80;;;-0.40;92.10;;;;;;5050287;28;20424;-73
2021/12/21 05:52:26;;;;;;;7.70;4.27;;;-0.40;91.90;;;;;;5048976;28;21007;-74
2021/12/21 05:54:51;;;;;;;5.03;3.53;;;-0.50;91.90;;;;;;5052521;28;20969;-74
2021/12/21 05:57:17;;;;;;;5.50;3.63;;;-0.40;91.90;;;;;;5049146;28;20215;-73
2021/12/21 05:59:43;;;;;;;6.57;3.53;;;-0.40;91.80;;;;;;5049198;28;20198;-73
2021/12/21 06:02:09;;;;;;;9.30;4.40;;;-0.50;91.70;;;;;;5050680;28;20428;-72
2021/12/21 06:04:35;;;;;;;13.40;4.37;;;-0.50;91.70;;;;;;5050727;28;20172;-75
2021/12/21 06:07:01;;;;;;;9.03;4.70;;;-0.50;91.70;;;;;;5050511;28;20777;-73
2021/12/21 06:09:28;;;;;;;8.07;4.40;;;-0.50;91.70;;;;;;5049088;28;20162;-74
2021/12/21 06:14:48;;;;;;;8.47;4.07;;;-0.50;91.80;;;;;;5049507;28;20435;-74
2021/12/21 06:27:53;;;;;;;8.20;3.53;;;-0.50;91.60;;;;;;5050713;28;21043;-74
2021/12/21 06:30:19;;;;;;;7.80;4.60;;;-0.60;91.40;;;;;;5051706;28;20428;-74
2021/12/21 06:32:45;;;;;;;14.77;4.67;;;-0.60;91.50;;;;;;5051441;28;20446;-75
2021/12/21 06:35:12;;;;;;;11.03;4.33;;;-0.60;91.60;;;;;;5057477;28;20454;-75
2021/12/21 06:37:38;;;;;;;10.57;4.83;;;-0.60;91.50;;;;;;5054153;28;20408;-74
2021/12/21 06:40:04;;;;;;;10.27;4.60;;;-0.60;91.50;;;;;;5052228;28;20437;-74
2021/12/21 06:42:30;;;;;;;8.20;4.50;;;-0.60;91.60;;;;;;5047935;28;20802;-75
2021/12/21 06:44:59;;;;;;;8.00;4.60;;;-0.60;91.60;;;;;;5053105;28;20460;-73
2021/12/21 06:52:54;;;;;;;8.87;4.80;;;-0.60;91.50;;;;;;5041585;28;20432;-74
2021/12/21 06:55:20;;;;;;;7.63;4.13;;;-0.70;91.40;;;;;;5048226;28;20583;-73
2021/12/21 06:57:45;;;;;;;7.07;3.80;;;-0.70;91.50;;;;;;5068682;28;20173;-74
2021/12/21 07:00:13;;;;;;;10.43;4.37;;;-0.70;91.50;;;;;;5053396;28;20435;-74
2021/12/21 07:02:39;;;;;;;6.27;3.80;;;-0.70;91.60;;;;;;5053126;28;20267;-73
2021/12/21 07:05:05;;;;;;;9.40;4.27;;;-0.70;91.60;;;;;;5052583;28;20554;-73
2021/12/21 07:07:31;;;;;;;9.53;4.40;;;-0.70;91.60;;;;;;5053446;28;20166;-73
2021/12/21 07:10:03;;;;;;;6.83;4.57;;;-0.70;91.60;;;;;;5051497;28;20443;-73
2021/12/21 07:20:25;;;;;;;8.77;5.47;;;-0.60;91.40;;;;;;5055672;28;20451;-73
2021/12/21 07:22:50;;;;;;;8.20;5.17;;;-0.60;91.40;;;;;;5064646;28;20416;-73
2021/12/21 07:25:16;;;;;;;11.77;5.83;;;-0.60;91.40;;;;;;5070038;28;20193;-74
2021/12/21 07:27:42;;;;;;;11.10;4.90;;;-0.60;91.40;;;;;;5065458;28;20174;-73
2021/12/21 07:30:08;;;;;;;17.40;8.57;;;-0.60;91.30;;;;;;5052863;28;20198;-74
2021/12/21 07:32:34;;;;;;;15.30;6.93;;;-0.60;91.30;;;;;;5053308;28;20162;-74
2021/12/21 07:35:00;;;;;;;12.40;6.97;;;-0.60;91.30;;;;;;5052797;28;20418;-74
2021/12/21 07:37:26;;;;;;;11.90;6.00;;;-0.60;91.40;;;;;;5055769;28;20506;-75
2021/12/21 07:39:52;;;;;;;10.73;5.73;;;-0.60;91.40;;;;;;5072854;28;20721;-73
2021/12/21 07:42:19;;;;;;;8.80;4.63;;;-0.60;91.50;;;;;;5061739;28;20231;-72
2021/12/21 07:44:46;;;;;;;9.40;4.87;;;-0.60;91.50;;;;;;5052813;28;20448;-74
2021/12/21 07:47:12;;;;;;;9.27;5.20;;;-0.60;91.50;;;;;;5051615;28;20519;-73
2021/12/21 07:49:38;;;;;;;7.60;4.33;;;-0.60;91.50;;;;;;5052271;28;20591;-74
2021/12/21 07:52:07;;;;;;;19.50;5.13;;;-0.60;91.60;;;;;;5052127;28;20181;-74
2021/12/21 07:54:33;;;;;;;9.10;5.03;;;-0.50;91.60;;;;;;5051536;28;20839;-75
2021/12/21 07:56:59;;;;;;;10.57;5.57;;;-0.50;91.50;;;;;;5051411;28;20456;-74
2021/12/21 07:59:25;;;;;;;5.97;4.07;;;-0.50;91.40;;;;;;5049902;28;20417;-72
2021/12/21 08:01:52;;;;;;;9.23;6.20;;;-0.50;91.40;;;;;;5042381;28;20921;-74
2021/12/21 08:04:21;;;;;;;8.90;5.03;;;-0.40;91.40;;;;;;5049989;28;20781;-74
2021/12/21 08:06:48;;;;;;;13.17;5.67;;;-0.40;91.80;;;;;;5040215;28;20460;-76
2021/12/21 08:09:14;;;;;;;7.07;4.03;;;-0.40;91.30;;;;;;5025549;28;20423;-75
2021/12/21 08:14:06;;;;;;;9.00;4.50;;;-0.30;91.20;;;;;;5043891;28;20519;-75
2021/12/21 08:16:34;;;;;;;6.30;3.70;;;-0.30;91.10;;;;;;5051035;28;20177;-76
2021/12/21 08:18:59;;;;;;;7.10;3.63;;;-0.30;91.10;;;;;;5051713;28;20170;-75
2021/12/21 08:21:26;;;;;;;6.20;4.10;;;-0.30;91.00;;;;;;5047126;28;20470;-75
2021/12/21 08:23:52;;;;;;;7.03;3.73;;;-0.30;90.90;;;;;;5046154;28;20255;-76
2021/12/21 08:26:18;;;;;;;10.63;4.40;;;-0.30;90.90;;;;;;5050021;28;20494;-74
2021/12/21 08:28:44;;;;;;;7.77;4.20;;;-0.30;90.90;;;;;;5049723;28;20890;-75
2021/12/21 08:31:13;;;;;;;7.20;4.47;;;-0.30;91.00;;;;;;5051404;28;20472;-76
2021/12/21 08:33:40;;;;;;;5.90;3.00;;;-0.30;90.90;;;;;;5050186;28;20227;-76
2021/12/21 08:36:08;;;;;;;8.77;4.40;;;-0.30;91.00;;;;;;5050534;28;20432;-76
2021/12/21 08:38:37;;;;;;;10.23;4.73;;;-0.30;90.90;;;;;;5052843;28;20423;-76
2021/12/21 08:41:03;;;;;;;9.93;4.97;;;-0.20;91.00;;;;;;5053869;28;20825;-77
2021/12/21 08:43:31;;;;;;;12.60;4.30;;;-0.20;90.80;;;;;;5055093;28;20786;-77
2021/12/21 08:45:57;;;;;;;13.70;4.33;;;-0.20;90.60;;;;;;5054509;28;21024;-77
2021/12/21 08:48:23;;;;;;;6.50;3.77;;;-0.20;90.40;;;;;;5075363;28;20524;-77
2021/12/21 08:50:53;;;;;;;10.17;5.23;;;-0.20;90.20;;;;;;5054359;28;20225;-77
2021/12/21 08:53:20;;;;;;;5.57;4.20;;;-0.20;90.40;;;;;;5055453;28;20507;-77
2021/12/21 08:55:46;;;;;;;7.80;3.87;;;-0.20;90.30;;;;;;5051109;28;20411;-77
2021/12/21 08:58:12;;;;;;;12.00;5.50;;;-0.10;90.30;;;;;;5027437;28;20483;-77
2021/12/21 09:00:40;;;;;;;8.43;4.60;;;-0.10;90.20;;;;;;5061385;28;20673;-77
2021/12/21 09:03:06;;;;;;;8.63;4.10;;;0.00;90.10;;;;;;5059337;28;20435;-77
2021/12/21 09:05:33;;;;;;;10.00;4.33;;;0.00;90.10;;;;;;5042448;28;20536;-76
2021/12/21 09:08:00;;;;;;;7.03;4.10;;;0.10;89.90;;;;;;5045052;28;20428;-77
2021/12/21 09:10:27;;;;;;;11.00;4.10;;;0.10;89.30;;;;;;5050358;28;20825;-77
2021/12/21 09:12:53;;;;;;;7.60;4.20;;;0.10;89.40;;;;;;5049474;28;20503;-77
2021/12/21 09:15:20;;;;;;;20.20;8.23;;;0.10;89.40;;;;;;5056256;28;20515;-77
2021/12/21 09:17:54;;;;;;;6.13;3.40;;;0.20;89.40;;;;;;5055650;28;20199;-78
2021/12/21 09:20:22;;;;;;;15.33;4.20;;;0.30;89.20;;;;;;5062173;28;20462;-76
2021/12/21 09:22:48;;;;;;;8.00;4.10;;;0.30;88.70;;;;;;5053678;28;20493;-78
2021/12/21 09:25:15;;;;;;;6.87;3.80;;;0.50;89.80;;;;;;5052188;28;20483;-77
2021/12/21 09:27:42;;;;;;;17.47;4.07;;;1.70;92.20;;;;;;5034824;28;20431;-78
2021/12/21 09:30:12;;;;;;;6.83;3.97;;;3.90;88.90;;;;;;5051865;28;20547;-78
2021/12/21 09:32:38;;;;;;;11.07;3.80;;;6.10;77.30;;;;;;5041495;28;20490;-77
2021/12/21 09:35:05;;;;;;;10.90;3.73;;;7.70;66.60;;;;;;5057515;28;20503;-77
2021/12/21 09:37:32;;;;;;;11.83;5.80;;;8.60;59.50;;;;;;5041653;28;20444;-78
2021/12/21 09:39:58;;;;;;;3.70;3.40;;;9.40;54.10;;;;;;5054310;28;20548;-77
2021/12/21 09:42:27;;;;;;;7.90;3.80;;;9.70;51.70;;;;;;5059355;28;20515;-77
2021/12/21 09:44:53;;;;;;;3.30;2.97;;;10.00;47.70;;;;;;5064541;28;20482;-77
2021/12/21 09:47:19;;;;;;;6.67;3.67;;;10.10;48.50;;;;;;5073368;28;20459;-78
2021/12/21 09:49:47;;;;;;;7.13;3.30;;;10.70;47.70;;;;;;5063423;28;20447;-76
2021/12/21 09:52:18;;;;;;;6.13;3.70;;;11.40;46.70;;;;;;5064924;28;20427;-76
2021/12/21 09:54:45;;;;;;;8.30;3.43;;;12.00;45.20;;;;;;5064198;28;20500;-76
2021/12/21 09:57:15;;;;;;;8.27;3.80;;;12.70;43.10;;;;;;5055104;28;20960;-77
2021/12/21 09:59:42;;;;;;;10.80;5.83;;;13.20;42.00;;;;;;5059731;28;20461;-77
2021/12/21 10:02:08;;;;;;;6.20;3.70;;;13.70;39.40;;;;;;5044925;28;20437;-78
2021/12/21 10:04:51;;;;;;;7.80;4.20;;;13.60;38.40;;;;;;5053669;28;20726;-76
2021/12/21 10:07:18;;;;;;;8.07;4.00;;;13.40;38.10;;;;;;5044370;28;20189;-78
2021/12/21 10:09:47;;;;;;;8.03;3.87;;;13.20;38.10;;;;;;5068315;28;20527;-77
2021/12/21 10:12:28;;;;;;;4.33;3.40;;;12.70;38.40;;;;;;5069935;28;20842;-78
2021/12/21 10:15:17;;;;;;;7.70;3.70;;;11.90;38.60;;;;;;5059208;28;20454;-76
2021/12/21 10:17:59;;;;;;;5.83;3.53;;;11.10;39.80;;;;;;5037988;28;20420;-76
2021/12/21 10:20:41;;;;;;;7.10;3.63;;;9.90;41.50;;;;;;5055547;28;20459;-78
2021/12/21 10:23:34;;;;;;;4.80;3.50;;;8.70;43.80;;;;;;5056385;28;20478;-77
2021/12/21 10:26:07;;;;;;;11.60;3.50;;;7.70;46.10;;;;;;5042306;28;20453;-77
2021/12/21 10:28:43;;;;;;;7.50;4.00;;;7.10;47.50;;;;;;5040931;28;20412;-77
2021/12/21 10:31:14;;;;;;;12.17;4.60;;;6.50;48.70;;;;;;5045874;28;20502;-77
2021/12/21 10:33:44;;;;;;;11.47;4.00;;;6.10;49.90;;;;;;5058882;28;20506;-78
2021/12/21 10:36:11;;;;;;;5.67;3.90;;;5.70;50.80;;;;;;5052891;28;20438;-78
2021/12/21 10:38:44;;;;;;;35.57;20.60;;;5.30;51.80;;;;;;5037418;28;20809;-76
2021/12/21 10:41:16;;;;;;;14.73;7.20;;;4.80;53.30;;;;;;5055654;28;20427;-76
2021/12/21 10:43:43;;;;;;;6.77;3.60;;;4.30;55.10;;;;;;5055160;28;20420;-77
2021/12/21 10:46:09;;;;;;;13.33;4.53;;;3.90;56.30;;;;;;5055088;28;20459;-77
2021/12/21 10:48:36;;;;;;;9.07;4.67;;;3.60;57.50;;;;;;5055062;28;20572;-77
2021/12/21 10:51:08;;;;;;;10.93;3.97;;;3.50;58.40;;;;;;5056778;28;20420;-77
2021/12/21 10:53:34;;;;;;;9.03;4.67;;;3.30;59.10;;;;;;5055375;28;20417;-77
2021/12/21 10:56:12;;;;;;;14.73;5.57;;;3.20;59.80;;;;;;5056355;28;20869;-76
2021/12/21 10:58:52;;;;;;;6.63;3.47;;;3.10;60.90;;;;;;5056990;28;20423;-77
2021/12/21 11:01:25;;;;;;;8.60;3.73;;;2.90;61.50;;;;;;5064651;28;20412;-75
2021/12/21 11:03:53;;;;;;;8.73;3.20;;;2.80;62.80;;;;;;5075016;28;20408;-75
2021/12/21 11:06:28;;;;;;;8.00;3.30;;;2.70;64.00;;;;;;5070702;28;20448;-76
2021/12/21 11:08:56;;;;;;;12.20;3.30;;;2.60;64.60;;;;;;5035114;28;20821;-76
2021/12/21 11:11:33;;;;;;;6.30;2.70;;;2.60;65.10;;;;;;5036427;28;20428;-78
2021/12/21 11:14:13;;;;;;;2.40;2.10;;;2.60;65.50;;;;;;5054891;28;20412;-76
2021/12/21 11:16:52;;;;;;;9.50;3.00;;;2.60;65.80;;;;;;5054189;28;20444;-77
2021/12/21 11:19:20;;;;;;;5.80;3.20;;;2.60;66.30;;;;;;5054711;28;20438;-76
2021/12/21 11:21:47;;;;;;;10.37;3.10;;;2.50;66.70;;;;;;5053602;28;20427;-77
2021/12/21 11:24:18;;;;;;;8.30;2.80;;;2.40;67.00;;;;;;5053002;28;20443;-76
2021/12/21 11:26:45;;;;;;;6.00;3.30;;;2.40;67.30;;;;;;5053829;28;20605;-76
2021/12/21 11:29:16;;;;;;;6.60;3.33;;;2.40;67.90;;;;;;5052450;28;20797;-76
2021/12/21 11:31:47;;;;;;;4.17;2.47;;;2.50;68.20;;;;;;5048246;28;20801;-77
2021/12/21 11:34:17;;;;;;;8.30;3.73;;;2.60;68.30;;;;;;5054382;28;20427;-77
2021/12/21 11:39:38;;;;;;;11.20;3.20;;;2.60;68.50;;;;;;5052736;28;20591;-76
2021/12/21 11:42:07;;;;;;;9.07;3.23;;;2.70;68.80;;;;;;5052499;28;20467;-77
2021/12/21 11:44:36;;;;;;;4.90;3.43;;;2.70;68.80;;;;;;5048162;28;20518;-76
2021/12/21 11:47:02;;;;;;;5.50;2.73;;;2.70;68.50;;;;;;5051782;28;20788;-76
2021/12/21 11:49:39;;;;;;;5.83;3.53;;;2.70;68.30;;;;;;5051368;28;20452;-79
2021/12/21 11:52:10;;;;;;;4.30;2.83;;;2.70;67.90;;;;;;5053126;28;20495;-76
2021/12/21 11:54:51;;;;;;;8.00;3.30;;;2.70;68.20;;;;;;5033532;28;20409;-77
2021/12/21 11:57:20;;;;;;;11.20;3.00;;;2.70;68.00;;;;;;5053369;28;20416;-78
2021/12/21 11:59:49;;;;;;;5.83;2.93;;;2.70;67.80;;;;;;5054167;28;20456;-76
2021/12/21 12:02:27;;;;;;;7.37;3.77;;;2.70;68.50;;;;;;5034762;28;20429;-77
2021/12/21 12:04:57;;;;;;;7.00;3.40;;;2.80;68.90;;;;;;5055690;28;20467;-76
2021/12/21 12:07:23;;;;;;;11.60;3.00;;;2.80;68.70;;;;;;5044445;28;20917;-77
2021/12/21 12:10:04;;;;;;;4.93;3.47;;;2.90;68.60;;;;;;5053013;28;20452;-77
2021/12/21 12:12:30;;;;;;;12.87;3.70;;;2.90;68.60;;;;;;5052966;28;20513;-75
2021/12/21 12:15:02;;;;;;;7.37;3.17;;;3.00;68.60;;;;;;5052301;28;20957;-77
2021/12/21 12:17:28;;;;;;;6.20;2.93;;;3.00;68.30;;;;;;5053497;28;20174;-76
2021/12/21 12:20:00;;;;;;;11.13;6.43;;;3.10;68.50;;;;;;5056270;28;20486;-76
2021/12/21 12:22:37;;;;;;;7.57;4.30;;;3.10;68.50;;;;;;5057721;28;20432;-77
2021/12/21 12:25:12;;;;;;;4.50;2.57;;;3.10;68.10;;;;;;5060006;28;20456;-77
2021/12/21 12:27:47;;;;;;;6.57;3.40;;;3.20;68.10;;;;;;5067626;28;20416;-76
2021/12/21 12:30:20;;;;;;;7.00;3.53;;;3.30;67.70;;;;;;5064279;28;20530;-76
2021/12/21 12:32:59;;;;;;;6.33;2.93;;;3.30;67.80;;;;;;5053211;28;20935;-78
2021/12/21 12:35:34;;;;;;;10.33;3.50;;;3.30;67.60;;;;;;5036071;28;20573;-77
2021/12/21 12:38:02;;;;;;;4.80;3.10;;;3.30;67.10;;;;;;5054376;28;20404;-77
2021/12/21 12:40:46;;;;;;;5.67;2.83;;;3.30;68.10;;;;;;5050762;28;20468;-77
2021/12/21 12:43:17;;;;;;;4.40;2.47;;;3.30;67.10;;;;;;5040407;28;20907;-77
2021/12/21 12:45:45;;;;;;;8.83;3.47;;;3.30;67.50;;;;;;5048862;28;20832;-76
2021/12/21 12:48:30;;;;;;;9.10;3.67;;;3.40;67.60;;;;;;5049328;28;20420;-78
2021/12/21 12:50:57;;;;;;;5.50;3.10;;;3.40;67.10;;;;;;5036719;28;20447;-77
2021/12/21 12:53:39;;;;;;;5.13;2.90;;;3.40;66.20;;;;;;5052435;28;20490;-76
2021/12/21 12:56:06;;;;;;;5.00;2.53;;;3.30;66.30;;;;;;5067053;28;20432;-77
2021/12/21 12:58:35;;;;;;;10.60;2.93;;;3.30;66.90;;;;;;5053605;28;20439;-77
2021/12/21 13:01:04;;;;;;;5.07;2.87;;;3.30;67.00;;;;;;5053196;28;20460;-76
2021/12/21 13:03:36;;;;;;;7.53;2.80;;;3.30;66.70;;;;;;5055908;28;20940;-78
2021/12/21 13:06:33;;;;;;;7.03;3.10;;;3.30;67.00;;;;;;5054518;28;20460;-78
2021/12/21 13:08:59;;;;;;;8.87;3.17;;;3.40;67.40;;;;;;5037787;28;20428;-78
2021/12/21 13:11:31;;;;;;;9.00;3.40;;;3.40;67.30;;;;;;5054394;28;20448;-77
2021/12/21 13:14:02;;;;;;;6.63;3.87;;;3.40;67.00;;;;;;5053714;28;20429;-77
2021/12/21 13:16:31;;;;;;;53.17;22.00;;;3.40;67.00;;;;;;5053715;28;20423;-77
2021/12/21 13:19:06;;;;;;;9.27;3.87;;;3.40;66.70;;;;;;5051775;28;20419;-77
2021/12/21 13:21:36;;;;;;;5.30;2.30;;;3.40;67.10;;;;;;5043868;28;20459;-76
2021/12/21 13:24:04;;;;;;;7.30;3.33;;;3.40;67.00;;;;;;5029765;28;20421;-78
2021/12/21 13:26:50;;;;;;;6.10;2.53;;;3.40;67.20;;;;;;5050301;28;20466;-78
2021/12/21 13:29:21;;;;;;;4.90;2.80;;;3.30;67.00;;;;;;5041108;28;20448;-77
2021/12/21 13:31:52;;;;;;;3.87;2.07;;;3.30;66.90;;;;;;5038961;28;20447;-78
2021/12/21 13:34:19;;;;;;;5.53;3.00;;;3.30;67.20;;;;;;5044725;28;20433;-76
2021/12/21 13:36:57;;;;;;;4.83;2.40;;;3.30;67.70;;;;;;5032809;28;20419;-80
2021/12/21 13:39:34;;;;;;;6.10;3.33;;;3.40;67.30;;;;;;5050466;28;20509;-78
2021/12/21 13:42:16;;;;;;;7.63;4.10;;;3.40;67.50;;;;;;5017951;28;20428;-77
2021/12/21 13:44:47;;;;;;;3.73;2.67;;;3.40;67.20;;;;;;5048322;28;20424;-77
2021/12/21 13:47:27;;;;;;;8.30;4.10;;;3.30;67.40;;;;;;5049167;28;20523;-78
2021/12/21 13:50:13;;;;;;;10.87;4.83;;;3.30;67.60;;;;;;5058252;28;20439;-77
2021/12/21 13:52:48;;;;;;;9.10;4.70;;;3.30;67.70;;;;;;5055005;28;20573;-78
2021/12/21 13:55:32;;;;;;;8.10;2.80;;;3.30;68.00;;;;;;5057736;28;20465;-78
2021/12/21 13:58:05;;;;;;;5.73;2.90;;;3.30;68.00;;;;;;5058224;28;20492;-79
2021/12/21 14:00:34;;;;;;;7.30;2.27;;;3.30;68.30;;;;;;5056813;28;20444;-76
2021/12/21 14:03:16;;;;;;;6.17;2.70;;;3.30;68.20;;;;;;5058228;28;20439;-77
2021/12/21 14:05:45;;;;;;;3.97;2.00;;;3.20;68.00;;;;;;5039047;28;20518;-78
2021/12/21 14:08:12;;;;;;;2.93;2.13;;;3.20;68.20;;;;;;5056010;28;20451;-77
2021/12/21 14:10:46;;;;;;;4.80;3.00;;;3.20;68.40;;;;;;5046308;28;20440;-78